createdAt,value
2022-10-26T00:04:29.915Z,19.2
2022-10-26T00:10:07.078Z,19.2
2022-10-26T00:17:11.329Z,19.2
2022-10-26T00:23:01.176Z,19.1
2022-10-26T00:28:47.131Z,19.1
2022-10-26T00:34:31.206Z,19.1
2022-10-26T00:40:06.573Z,19
2022-10-26T00:46:01.231Z,19
2022-10-26T00:51:56.705Z,18.9
2022-10-26T00:57:32.740Z,18.9
2022-10-26T01:03:09.600Z,18.9
2022-10-26T01:09:05.613Z,18.8
2022-10-26T01:14:40.431Z,18.8
2022-10-26T01:21:18.927Z,18.8
2022-10-26T01:27:00.126Z,18.7
2022-10-26T01:33:28.163Z,18.6
2022-10-26T01:39:31.666Z,18.7
2022-10-26T01:45:14.569Z,18.7
2022-10-26T01:50:56.729Z,18.6
2022-10-26T01:56:52.585Z,18.6
2022-10-26T02:02:27.839Z,18.6
2022-10-26T02:08:16.251Z,18.6
2022-10-26T02:14:09.201Z,18.5
2022-10-26T02:19:44.949Z,18.3
2022-10-26T02:25:26.639Z,18.3
2022-10-26T02:31:01.539Z,18.3
2022-10-26T02:36:46.537Z,18.3
2022-10-26T02:42:21.438Z,18.2
2022-10-26T02:47:56.547Z,18.1
2022-10-26T02:53:38.672Z,18
2022-10-26T02:59:37.001Z,18.1
2022-10-26T03:05:31.159Z,18.1
2022-10-26T03:11:08.210Z,18
2022-10-26T03:22:34.163Z,17.9
2022-10-26T03:28:29.886Z,17.9
2022-10-26T03:34:04.960Z,17.9
2022-10-26T03:39:48.505Z,17.8
2022-10-26T03:45:26.254Z,17.8
2022-10-26T03:51:01.177Z,17.8
2022-10-26T03:56:51.396Z,17.8
2022-10-26T04:02:30.324Z,17.8
2022-10-26T04:08:08.267Z,17.8
2022-10-26T04:13:48.672Z,17.8
2022-10-26T04:19:44.361Z,17.8
2022-10-26T04:25:32.907Z,17.7
2022-10-26T04:31:08.879Z,17.6
2022-10-26T04:36:44.014Z,17.6
2022-10-26T04:42:39.576Z,17.6
2022-10-26T04:48:28.457Z,17.7
2022-10-26T04:54:24.182Z,17.7
2022-10-26T05:00:08.199Z,17.7
2022-10-26T05:05:43.105Z,17.7
2022-10-26T05:11:26.046Z,17.6
2022-10-26T05:17:01.196Z,17.5
2022-10-26T05:22:38.651Z,17.5
2022-10-26T05:28:20.359Z,17.4
2022-10-26T05:34:41.476Z,17.3
2022-10-26T05:40:28.596Z,17.3
2022-10-26T05:46:03.894Z,17.3
2022-10-26T05:51:38.716Z,17.3
2022-10-26T05:57:13.604Z,17.4
2022-10-26T06:02:53.666Z,17.3
2022-10-26T06:08:30.960Z,17.2
2022-10-26T06:14:34.059Z,17.1
2022-10-26T06:20:09.294Z,16.2
2022-10-26T06:25:44.912Z,16
2022-10-26T06:31:20.028Z,16.2
2022-10-26T06:37:04.813Z,16.1
2022-10-26T06:42:47.365Z,16.1
2022-10-26T06:48:23.151Z,16.6
2022-10-26T06:54:44.401Z,16.2
2022-10-26T07:00:19.956Z,16.4
2022-10-26T07:06:08.229Z,17
2022-10-26T07:11:53.225Z,17.2
2022-10-26T07:17:39.449Z,16.7
2022-10-26T07:29:17.439Z,17.4
2022-10-26T07:34:57.403Z,17.5
2022-10-26T07:40:42.991Z,17.8
2022-10-26T07:46:23.315Z,17.8
2022-10-26T07:51:58.159Z,17.8
2022-10-26T07:57:36.956Z,18.1
2022-10-26T08:03:29.646Z,18.2
2022-10-26T08:09:35.399Z,18.5
2022-10-26T08:15:14.123Z,18.8
2022-10-26T08:21:10.029Z,19.1
2022-10-26T08:27:35.965Z,19
2022-10-26T08:33:16.462Z,19.3
2022-10-26T08:38:51.335Z,19.4
2022-10-26T08:44:29.687Z,19.6
2022-10-26T08:50:05.514Z,19.3
2022-10-26T08:55:47.574Z,19.5
2022-10-26T09:01:22.582Z,19.9
2022-10-26T09:07:00.388Z,20.1
2022-10-26T09:12:36.769Z,20.4
2022-10-26T09:18:28.393Z,20.5
2022-10-26T09:24:03.574Z,20.2
2022-10-26T09:29:55.283Z,19.9
2022-10-26T09:35:38.639Z,19.7
2022-10-26T09:41:13.551Z,19.4
2022-10-26T09:46:54.689Z,19.3
2022-10-26T09:52:37.747Z,19.4
2022-10-26T09:58:25.300Z,19.6
2022-10-26T10:04:06.667Z,19.5
2022-10-26T10:10:01.711Z,19.7
2022-10-26T10:15:43.042Z,20.3
2022-10-26T10:21:22.765Z,21.3
2022-10-26T10:27:08.387Z,21.7
2022-10-26T10:32:46.612Z,22
2022-10-26T10:38:28.396Z,22.5
2022-10-26T10:45:23.256Z,22.5
2022-10-26T10:50:59.516Z,21.8
2022-10-26T10:56:52.650Z,22.9
2022-10-26T11:02:30.235Z,23.5
2022-10-26T11:08:06.471Z,23.3
2022-10-26T11:13:49.348Z,23.4
2022-10-26T11:19:32.369Z,23.6
2022-10-26T11:25:13.526Z,23.8
2022-10-26T11:30:51.278Z,24
2022-10-26T11:36:26.532Z,24
2022-10-26T11:42:02.383Z,24.2
2022-10-26T11:47:37.305Z,24.4
2022-10-26T11:53:38.746Z,24.5
2022-10-26T11:59:14.501Z,24.6
2022-10-26T12:04:52.745Z,24.8
2022-10-26T12:10:27.940Z,25.3
2022-10-26T12:16:04.950Z,25.5
2022-10-26T12:21:48.991Z,25.8
2022-10-26T12:27:36.517Z,25.9
2022-10-26T12:33:12.545Z,25.2
2022-10-26T12:38:47.985Z,26.3
2022-10-26T12:44:35.277Z,26.8
2022-10-26T12:50:31.809Z,27.5
2022-10-26T12:56:11.149Z,26.1
2022-10-26T13:01:46.861Z,25.5
2022-10-26T13:07:38.503Z,25.5
2022-10-26T13:13:14.271Z,26.3
2022-10-26T13:18:49.441Z,27.3
2022-10-26T13:24:32.678Z,28.8
2022-10-26T13:30:10.227Z,28.7
2022-10-26T13:35:52.727Z,27.3
2022-10-26T13:41:31.653Z,26.3
2022-10-26T13:47:19.924Z,25.9
2022-10-26T13:53:02.639Z,26
2022-10-26T13:58:43.066Z,26.1
2022-10-26T14:04:20.795Z,26
2022-10-26T14:09:55.844Z,25.7
2022-10-26T14:15:52.674Z,25.5
2022-10-26T14:21:32.668Z,25.3
2022-10-26T14:27:38.327Z,25.1
2022-10-26T14:33:29.771Z,25.2
2022-10-26T14:39:17.099Z,25.3
2022-10-26T14:45:15.183Z,25.4
2022-10-26T14:51:27.150Z,25.1
2022-10-26T14:57:07.799Z,24.9
2022-10-26T15:02:43.497Z,24.7
2022-10-26T15:08:23.701Z,24.6
2022-10-26T15:14:50.985Z,24.4
2022-10-26T15:20:26.061Z,24.2
2022-10-26T15:26:07.703Z,24.1
2022-10-26T15:31:42.640Z,23.9
2022-10-26T15:37:17.691Z,23.8
2022-10-26T15:43:03.893Z,23.7
2022-10-26T15:54:31.477Z,23.5
2022-10-26T16:00:22.372Z,23.4
2022-10-26T16:06:33.448Z,23.3
2022-10-26T16:12:18.343Z,23.2
2022-10-26T16:18:31.820Z,23.1
2022-10-26T16:24:09.338Z,23
2022-10-26T16:29:44.294Z,22.9
2022-10-26T16:35:24.776Z,22.9
2022-10-26T16:42:33.077Z,22.7
2022-10-26T16:48:08.460Z,22.7
2022-10-26T16:54:04.545Z,22.1
2022-10-26T16:59:50.176Z,21.5
2022-10-26T17:05:25.586Z,21.2
2022-10-26T17:12:11.855Z,20.9
2022-10-26T17:17:57.626Z,20.9
2022-10-26T17:23:52.552Z,21.1
2022-10-26T17:29:39.252Z,21.3
2022-10-26T17:35:18.388Z,21.4
2022-10-26T17:41:02.357Z,21.4
2022-10-26T17:46:39.673Z,21.3
2022-10-26T17:52:14.732Z,21.3
2022-10-26T17:58:01.947Z,21.2
2022-10-26T18:03:49.955Z,21.2
2022-10-26T18:10:04.675Z,21.2
2022-10-26T18:16:36.213Z,21.2
2022-10-26T18:22:35.798Z,21.2
2022-10-26T18:30:02.932Z,21.1
2022-10-26T18:35:39.409Z,21
2022-10-26T18:41:45.085Z,21
2022-10-26T18:47:20.429Z,20.9
2022-10-26T18:52:56.173Z,20.8
2022-10-26T18:58:38.435Z,20.7
2022-10-26T19:04:18.627Z,20.7
2022-10-26T19:09:58.194Z,20.7
2022-10-26T19:15:57.540Z,20.7
2022-10-26T19:21:51.294Z,20.7
2022-10-26T19:27:27.191Z,20.6
2022-10-26T19:33:09.598Z,20.5
2022-10-26T19:38:46.115Z,20.5
2022-10-26T19:44:36.207Z,20.4
2022-10-26T19:50:11.139Z,20.3
2022-10-26T19:55:47.022Z,20.3
2022-10-26T20:01:39.988Z,20.2
2022-10-26T20:07:16.286Z,20.2
2022-10-26T20:13:03.831Z,20.1
2022-10-26T20:18:39.903Z,20
2022-10-26T20:24:25.180Z,20
2022-10-26T20:30:01.169Z,20
2022-10-26T20:35:53.764Z,20
2022-10-26T20:42:00.516Z,20
2022-10-26T20:47:33.213Z,20
2022-10-26T20:53:08.518Z,20
2022-10-26T20:58:49.274Z,19.9
2022-10-26T21:04:39.743Z,19.9
2022-10-26T21:10:28.470Z,19.8
2022-10-26T21:16:14.384Z,19.7
2022-10-26T21:21:50.161Z,19.7
2022-10-26T21:27:27.918Z,19.6
2022-10-26T21:33:08.458Z,19.5
2022-10-26T21:38:43.671Z,19.5
2022-10-26T21:44:41.193Z,19.4
2022-10-26T21:50:28.347Z,19.4
2022-10-26T21:56:04.311Z,19.4
2022-10-26T22:01:45.633Z,19.4
2022-10-26T22:07:22.538Z,19.4
2022-10-26T22:13:20.628Z,19.4
2022-10-26T22:19:05.558Z,19.4
2022-10-26T22:24:40.301Z,19.4
2022-10-26T22:30:15.168Z,19.5
2022-10-26T22:35:49.916Z,19.5
2022-10-26T22:41:50.809Z,19.4
2022-10-26T22:47:23.449Z,19.4
2022-10-26T22:53:11.236Z,19.4
2022-10-26T22:58:51.113Z,19.4
2022-10-26T23:04:33.697Z,19.5
2022-10-26T23:10:13.463Z,19.6
2022-10-26T23:15:57.827Z,19.7
2022-10-26T23:21:40.824Z,19.7
2022-10-26T23:27:22.140Z,19.8
2022-10-26T23:33:03.780Z,19.8
2022-10-26T23:38:47.832Z,19.9
2022-10-26T23:44:22.985Z,20
2022-10-26T23:50:18.663Z,20.1
2022-10-26T23:55:59.354Z,20.2
